sensor_id;sensor_type;location;lat;lon;timestamp;P1;durP1;ratioP1;P2;durP2;ratioP2
2706;SDS011;7819;48.046;7.642;2022-12-18T00:00:27;24.33;;;14.73;;
2706;SDS011;7819;48.046;7.642;2022-12-18T00:02:52;26.33;;;14.87;;
2706;SDS011;7819;48.046;7.642;2022-12-18T00:05:17;26.57;;;12.40;;
2706;SDS011;7819;48.046;7.642;2022-12-18T00:07:42;24.13;;;12.80;;
2706;SDS011;7819;48.046;7.642;2022-12-18T00:10:08;38.40;;;16.20;;
2706;SDS011;7819;48.046;7.642;2022-12-18T00:12:33;25.40;;;13.07;;
2706;SDS011;7819;48.046;7.642;2022-12-18T00:14:58;32.33;;;14.33;;
2706;SDS011;7819;48.046;7.642;2022-12-18T00:17:24;30.07;;;15.73;;
2706;SDS011;7819;48.046;7.642;2022-12-18T00:19:49;28.43;;;13.93;;
2706;SDS011;7819;48.046;7.642;2022-12-18T00:22:14;32.87;;;14.40;;
2706;SDS011;7819;48.046;7.642;2022-12-18T00:24:39;29.67;;;15.43;;
2706;SDS011;7819;48.046;7.642;2022-12-18T00:27:04;33.70;;;18.53;;
2706;SDS011;7819;48.046;7.642;2022-12-18T00:29:30;25.40;;;12.60;;
2706;SDS011;7819;48.046;7.642;2022-12-18T00:31:55;26.57;;;11.73;;
2706;SDS011;7819;48.046;7.642;2022-12-18T00:34:20;21.73;;;13.17;;
2706;SDS011;7819;48.046;7.642;2022-12-18T00:36:46;26.63;;;16.00;;
2706;SDS011;7819;48.046;7.642;2022-12-18T00:39:12;22.87;;;13.37;;
2706;SDS011;7819;48.046;7.642;2022-12-18T00:41:37;27.40;;;13.70;;
2706;SDS011;7819;48.046;7.642;2022-12-18T00:44:21;29.00;;;17.10;;
2706;SDS011;7819;48.046;7.642;2022-12-18T00:46:46;35.57;;;20.17;;
2706;SDS011;7819;48.046;7.642;2022-12-18T00:49:12;28.27;;;15.10;;
2706;SDS011;7819;48.046;7.642;2022-12-18T00:51:37;20.90;;;13.70;;
2706;SDS011;7819;48.046;7.642;2022-12-18T00:54:03;29.80;;;16.40;;
2706;SDS011;7819;48.046;7.642;2022-12-18T00:56:29;23.60;;;14.50;;
2706;SDS011;7819;48.046;7.642;2022-12-18T00:58:54;24.37;;;14.60;;
2706;SDS011;7819;48.046;7.642;2022-12-18T01:01:19;24.60;;;13.87;;
2706;SDS011;7819;48.046;7.642;2022-12-18T01:03:45;28.57;;;13.30;;
2706;SDS011;7819;48.046;7.642;2022-12-18T01:06:12;39.33;;;19.87;;
2706;SDS011;7819;48.046;7.642;2022-12-18T01:08:38;30.83;;;14.67;;
2706;SDS011;7819;48.046;7.642;2022-12-18T01:11:07;25.13;;;14.00;;
2706;SDS011;7819;48.046;7.642;2022-12-18T01:13:33;20.87;;;12.97;;
2706;SDS011;7819;48.046;7.642;2022-12-18T01:15:58;32.27;;;14.20;;
2706;SDS011;7819;48.046;7.642;2022-12-18T01:18:23;31.30;;;15.23;;
2706;SDS011;7819;48.046;7.642;2022-12-18T01:20:48;26.80;;;13.93;;
2706;SDS011;7819;48.046;7.642;2022-12-18T01:23:13;27.93;;;12.50;;
2706;SDS011;7819;48.046;7.642;2022-12-18T01:25:39;28.10;;;15.03;;
2706;SDS011;7819;48.046;7.642;2022-12-18T01:28:04;23.17;;;13.27;;
2706;SDS011;7819;48.046;7.642;2022-12-18T01:30:29;26.83;;;13.90;;
2706;SDS011;7819;48.046;7.642;2022-12-18T01:32:54;25.93;;;15.33;;
2706;SDS011;7819;48.046;7.642;2022-12-18T01:35:19;23.53;;;12.77;;
2706;SDS011;7819;48.046;7.642;2022-12-18T01:37:44;25.67;;;12.77;;
2706;SDS011;7819;48.046;7.642;2022-12-18T01:40:10;27.30;;;11.90;;
2706;SDS011;7819;48.046;7.642;2022-12-18T01:42:35;27.23;;;14.00;;
2706;SDS011;7819;48.046;7.642;2022-12-18T01:50:13;26.83;;;13.45;;
2706;SDS011;7819;48.046;7.642;2022-12-18T01:52:40;24.57;;;13.50;;
2706;SDS011;7819;48.046;7.642;2022-12-18T01:55:07;24.70;;;12.70;;
2706;SDS011;7819;48.046;7.642;2022-12-18T01:57:32;22.60;;;13.90;;
2706;SDS011;7819;48.046;7.642;2022-12-18T02:00:03;27.53;;;14.17;;
2706;SDS011;7819;48.046;7.642;2022-12-18T02:02:28;26.50;;;14.73;;
2706;SDS011;7819;48.046;7.642;2022-12-18T02:04:54;26.27;;;12.80;;
2706;SDS011;7819;48.046;7.642;2022-12-18T02:10:15;26.07;;;13.77;;
2706;SDS011;7819;48.046;7.642;2022-12-18T02:15:31;20.57;;;13.37;;
2706;SDS011;7819;48.046;7.642;2022-12-18T02:18:07;30.30;;;13.43;;
2706;SDS011;7819;48.046;7.642;2022-12-18T02:20:40;28.23;;;15.43;;
2706;SDS011;7819;48.046;7.642;2022-12-18T02:28:08;27.77;;;15.33;;
2706;SDS011;7819;48.046;7.642;2022-12-18T02:30:36;28.60;;;16.83;;
2706;SDS011;7819;48.046;7.642;2022-12-18T02:33:04;28.93;;;14.07;;
2706;SDS011;7819;48.046;7.642;2022-12-18T02:35:29;30.50;;;16.17;;
2706;SDS011;7819;48.046;7.642;2022-12-18T02:37:55;29.83;;;14.30;;
2706;SDS011;7819;48.046;7.642;2022-12-18T02:40:21;22.10;;;13.40;;
2706;SDS011;7819;48.046;7.642;2022-12-18T02:42:48;26.17;;;12.87;;
2706;SDS011;7819;48.046;7.642;2022-12-18T02:45:13;29.93;;;14.00;;
2706;SDS011;7819;48.046;7.642;2022-12-18T02:47:40;21.17;;;11.87;;
2706;SDS011;7819;48.046;7.642;2022-12-18T02:57:38;26.50;;;14.50;;
2706;SDS011;7819;48.046;7.642;2022-12-18T03:03:07;28.30;;;15.87;;
2706;SDS011;7819;48.046;7.642;2022-12-18T03:05:43;28.07;;;14.73;;
2706;SDS011;7819;48.046;7.642;2022-12-18T03:08:29;22.40;;;13.70;;
2706;SDS011;7819;48.046;7.642;2022-12-18T03:11:01;23.00;;;12.40;;
2706;SDS011;7819;48.046;7.642;2022-12-18T03:13:34;28.17;;;13.40;;
2706;SDS011;7819;48.046;7.642;2022-12-18T03:16:00;30.53;;;12.33;;
2706;SDS011;7819;48.046;7.642;2022-12-18T03:18:35;31.93;;;14.20;;
2706;SDS011;7819;48.046;7.642;2022-12-18T03:21:03;27.23;;;17.40;;
2706;SDS011;7819;48.046;7.642;2022-12-18T03:23:31;32.83;;;17.33;;
2706;SDS011;7819;48.046;7.642;2022-12-18T03:25:59;30.50;;;14.73;;
2706;SDS011;7819;48.046;7.642;2022-12-18T03:28:26;28.40;;;14.23;;
2706;SDS011;7819;48.046;7.642;2022-12-18T03:30:54;22.57;;;13.77;;
2706;SDS011;7819;48.046;7.642;2022-12-18T03:35:51;27.57;;;13.00;;
2706;SDS011;7819;48.046;7.642;2022-12-18T03:38:16;28.30;;;14.87;;
2706;SDS011;7819;48.046;7.642;2022-12-18T03:43:30;27.00;;;15.83;;
2706;SDS011;7819;48.046;7.642;2022-12-18T03:46:03;38.43;;;17.00;;
2706;SDS011;7819;48.046;7.642;2022-12-18T03:48:35;26.50;;;12.07;;
2706;SDS011;7819;48.046;7.642;2022-12-18T03:51:05;24.77;;;13.47;;
2706;SDS011;7819;48.046;7.642;2022-12-18T03:53:35;32.37;;;21.40;;
2706;SDS011;7819;48.046;7.642;2022-12-18T03:56:01;28.40;;;15.20;;
2706;SDS011;7819;48.046;7.642;2022-12-18T03:58:27;27.87;;;14.70;;
2706;SDS011;7819;48.046;7.642;2022-12-18T04:00:54;32.67;;;13.33;;
2706;SDS011;7819;48.046;7.642;2022-12-18T04:03:20;32.17;;;17.17;;
2706;SDS011;7819;48.046;7.642;2022-12-18T04:05:47;28.43;;;13.43;;
2706;SDS011;7819;48.046;7.642;2022-12-18T04:08:13;27.40;;;13.70;;
2706;SDS011;7819;48.046;7.642;2022-12-18T04:10:39;25.87;;;14.23;;
2706;SDS011;7819;48.046;7.642;2022-12-18T04:13:04;23.80;;;13.47;;
2706;SDS011;7819;48.046;7.642;2022-12-18T04:15:29;19.73;;;11.93;;
2706;SDS011;7819;48.046;7.642;2022-12-18T04:17:56;25.70;;;14.67;;
2706;SDS011;7819;48.046;7.642;2022-12-18T04:20:21;26.97;;;13.63;;
2706;SDS011;7819;48.046;7.642;2022-12-18T04:22:47;24.60;;;12.50;;
2706;SDS011;7819;48.046;7.642;2022-12-18T04:25:12;22.43;;;11.63;;
2706;SDS011;7819;48.046;7.642;2022-12-18T04:27:37;17.87;;;10.87;;
2706;SDS011;7819;48.046;7.642;2022-12-18T04:30:03;22.17;;;12.47;;
2706;SDS011;7819;48.046;7.642;2022-12-18T04:32:28;21.27;;;12.20;;
2706;SDS011;7819;48.046;7.642;2022-12-18T04:34:53;16.37;;;11.87;;
2706;SDS011;7819;48.046;7.642;2022-12-18T04:37:18;16.43;;;10.90;;
2706;SDS011;7819;48.046;7.642;2022-12-18T04:39:43;19.43;;;12.27;;
2706;SDS011;7819;48.046;7.642;2022-12-18T04:42:09;19.10;;;11.80;;
2706;SDS011;7819;48.046;7.642;2022-12-18T04:44:34;23.53;;;12.67;;
2706;SDS011;7819;48.046;7.642;2022-12-18T04:46:59;19.33;;;13.03;;
2706;SDS011;7819;48.046;7.642;2022-12-18T04:49:24;14.47;;;10.30;;
2706;SDS011;7819;48.046;7.642;2022-12-18T04:51:49;27.10;;;13.47;;
2706;SDS011;7819;48.046;7.642;2022-12-18T04:54:15;25.70;;;12.00;;
2706;SDS011;7819;48.046;7.642;2022-12-18T04:56:41;24.53;;;14.13;;
2706;SDS011;7819;48.046;7.642;2022-12-18T04:59:06;23.00;;;14.13;;
2706;SDS011;7819;48.046;7.642;2022-12-18T05:01:31;20.90;;;13.47;;
2706;SDS011;7819;48.046;7.642;2022-12-18T05:03:56;20.30;;;11.33;;
2706;SDS011;7819;48.046;7.642;2022-12-18T05:06:21;22.80;;;12.10;;
2706;SDS011;7819;48.046;7.642;2022-12-18T05:08:47;19.93;;;10.83;;
2706;SDS011;7819;48.046;7.642;2022-12-18T05:11:13;23.40;;;13.10;;
2706;SDS011;7819;48.046;7.642;2022-12-18T05:13:40;22.27;;;12.57;;
2706;SDS011;7819;48.046;7.642;2022-12-18T05:16:05;18.50;;;12.20;;
2706;SDS011;7819;48.046;7.642;2022-12-18T05:18:31;27.33;;;12.90;;
2706;SDS011;7819;48.046;7.642;2022-12-18T05:20:56;16.43;;;11.53;;
2706;SDS011;7819;48.046;7.642;2022-12-18T05:23:22;16.50;;;11.10;;
2706;SDS011;7819;48.046;7.642;2022-12-18T05:25:51;22.50;;;14.67;;
2706;SDS011;7819;48.046;7.642;2022-12-18T05:28:16;15.27;;;9.90;;
2706;SDS011;7819;48.046;7.642;2022-12-18T05:30:41;17.63;;;9.77;;
2706;SDS011;7819;48.046;7.642;2022-12-18T05:33:06;19.43;;;10.53;;
2706;SDS011;7819;48.046;7.642;2022-12-18T05:35:32;21.07;;;11.67;;
2706;SDS011;7819;48.046;7.642;2022-12-18T05:37:57;27.50;;;12.47;;
2706;SDS011;7819;48.046;7.642;2022-12-18T05:40:22;24.93;;;11.07;;
2706;SDS011;7819;48.046;7.642;2022-12-18T05:42:47;25.97;;;13.67;;
2706;SDS011;7819;48.046;7.642;2022-12-18T05:45:12;21.57;;;12.00;;
2706;SDS011;7819;48.046;7.642;2022-12-18T05:47:38;23.90;;;12.10;;
2706;SDS011;7819;48.046;7.642;2022-12-18T05:50:03;25.87;;;14.30;;
2706;SDS011;7819;48.046;7.642;2022-12-18T05:52:28;26.30;;;14.17;;
2706;SDS011;7819;48.046;7.642;2022-12-18T05:54:53;23.43;;;13.20;;
2706;SDS011;7819;48.046;7.642;2022-12-18T05:57:19;22.27;;;11.57;;
2706;SDS011;7819;48.046;7.642;2022-12-18T05:59:44;25.90;;;13.80;;
2706;SDS011;7819;48.046;7.642;2022-12-18T06:02:09;25.80;;;12.33;;
2706;SDS011;7819;48.046;7.642;2022-12-18T06:04:34;26.10;;;14.30;;
2706;SDS011;7819;48.046;7.642;2022-12-18T06:07:00;23.07;;;13.00;;
2706;SDS011;7819;48.046;7.642;2022-12-18T06:09:25;21.90;;;12.53;;
2706;SDS011;7819;48.046;7.642;2022-12-18T06:11:51;23.27;;;12.00;;
2706;SDS011;7819;48.046;7.642;2022-12-18T06:14:16;17.67;;;11.03;;
2706;SDS011;7819;48.046;7.642;2022-12-18T06:16:42;23.87;;;14.63;;
2706;SDS011;7819;48.046;7.642;2022-12-18T06:19:07;20.57;;;10.90;;
2706;SDS011;7819;48.046;7.642;2022-12-18T06:21:32;22.70;;;11.93;;
2706;SDS011;7819;48.046;7.642;2022-12-18T06:23:57;26.90;;;13.70;;
2706;SDS011;7819;48.046;7.642;2022-12-18T06:26:23;24.20;;;15.63;;
2706;SDS011;7819;48.046;7.642;2022-12-18T06:28:48;21.77;;;13.40;;
2706;SDS011;7819;48.046;7.642;2022-12-18T06:31:14;22.20;;;14.37;;
2706;SDS011;7819;48.046;7.642;2022-12-18T06:33:39;18.10;;;11.40;;
2706;SDS011;7819;48.046;7.642;2022-12-18T06:36:05;17.10;;;11.23;;
2706;SDS011;7819;48.046;7.642;2022-12-18T06:38:31;26.97;;;11.73;;
2706;SDS011;7819;48.046;7.642;2022-12-18T06:40:57;20.23;;;13.27;;
2706;SDS011;7819;48.046;7.642;2022-12-18T06:43:22;19.50;;;12.57;;
2706;SDS011;7819;48.046;7.642;2022-12-18T06:45:47;21.23;;;11.83;;
2706;SDS011;7819;48.046;7.642;2022-12-18T06:48:17;19.17;;;11.30;;
2706;SDS011;7819;48.046;7.642;2022-12-18T06:50:42;18.60;;;11.53;;
2706;SDS011;7819;48.046;7.642;2022-12-18T06:53:07;14.10;;;10.37;;
2706;SDS011;7819;48.046;7.642;2022-12-18T06:55:33;17.97;;;11.97;;
2706;SDS011;7819;48.046;7.642;2022-12-18T06:57:58;22.00;;;12.90;;
2706;SDS011;7819;48.046;7.642;2022-12-18T07:00:23;20.37;;;12.43;;
2706;SDS011;7819;48.046;7.642;2022-12-18T07:02:48;20.77;;;12.53;;
2706;SDS011;7819;48.046;7.642;2022-12-18T07:05:13;17.17;;;11.40;;
2706;SDS011;7819;48.046;7.642;2022-12-18T07:07:39;30.67;;;12.20;;
2706;SDS011;7819;48.046;7.642;2022-12-18T07:10:04;19.27;;;12.83;;
2706;SDS011;7819;48.046;7.642;2022-12-18T07:12:29;20.50;;;12.30;;
2706;SDS011;7819;48.046;7.642;2022-12-18T07:14:54;22.93;;;14.87;;
2706;SDS011;7819;48.046;7.642;2022-12-18T07:17:19;21.33;;;12.27;;
2706;SDS011;7819;48.046;7.642;2022-12-18T07:19:45;19.73;;;13.57;;
2706;SDS011;7819;48.046;7.642;2022-12-18T07:22:10;22.67;;;13.47;;
2706;SDS011;7819;48.046;7.642;2022-12-18T07:24:35;26.80;;;14.37;;
2706;SDS011;7819;48.046;7.642;2022-12-18T07:27:00;27.23;;;13.80;;
2706;SDS011;7819;48.046;7.642;2022-12-18T07:29:25;21.13;;;11.97;;
2706;SDS011;7819;48.046;7.642;2022-12-18T07:31:51;24.13;;;12.23;;
2706;SDS011;7819;48.046;7.642;2022-12-18T07:34:16;23.97;;;14.60;;
2706;SDS011;7819;48.046;7.642;2022-12-18T07:36:42;23.70;;;13.60;;
2706;SDS011;7819;48.046;7.642;2022-12-18T07:39:07;23.00;;;13.17;;
2706;SDS011;7819;48.046;7.642;2022-12-18T07:41:32;25.97;;;15.07;;
2706;SDS011;7819;48.046;7.642;2022-12-18T07:43:57;24.43;;;13.23;;
2706;SDS011;7819;48.046;7.642;2022-12-18T07:46:22;23.13;;;14.83;;
2706;SDS011;7819;48.046;7.642;2022-12-18T07:48:48;29.97;;;14.47;;
2706;SDS011;7819;48.046;7.642;2022-12-18T07:51:13;24.60;;;14.20;;
2706;SDS011;7819;48.046;7.642;2022-12-18T07:53:38;28.60;;;16.93;;
2706;SDS011;7819;48.046;7.642;2022-12-18T07:56:04;26.93;;;17.53;;
2706;SDS011;7819;48.046;7.642;2022-12-18T07:58:30;32.63;;;16.47;;
2706;SDS011;7819;48.046;7.642;2022-12-18T08:01:11;48.60;;;26.00;;
2706;SDS011;7819;48.046;7.642;2022-12-18T08:03:37;26.87;;;16.30;;
2706;SDS011;7819;48.046;7.642;2022-12-18T08:06:03;43.20;;;25.03;;
2706;SDS011;7819;48.046;7.642;2022-12-18T08:08:29;53.53;;;31.80;;
2706;SDS011;7819;48.046;7.642;2022-12-18T08:10:54;29.30;;;16.67;;
2706;SDS011;7819;48.046;7.642;2022-12-18T08:13:20;34.70;;;18.87;;
2706;SDS011;7819;48.046;7.642;2022-12-18T08:15:45;31.17;;;16.97;;
2706;SDS011;7819;48.046;7.642;2022-12-18T08:18:10;28.53;;;17.00;;
2706;SDS011;7819;48.046;7.642;2022-12-18T08:20:35;25.80;;;15.80;;
2706;SDS011;7819;48.046;7.642;2022-12-18T08:23:01;35.53;;;18.60;;
2706;SDS011;7819;48.046;7.642;2022-12-18T08:25:26;34.27;;;21.20;;
2706;SDS011;7819;48.046;7.642;2022-12-18T08:27:51;29.43;;;17.17;;
2706;SDS011;7819;48.046;7.642;2022-12-18T08:30:16;32.27;;;20.20;;
2706;SDS011;7819;48.046;7.642;2022-12-18T08:32:41;26.03;;;15.77;;
2706;SDS011;7819;48.046;7.642;2022-12-18T08:35:07;24.40;;;14.03;;
2706;SDS011;7819;48.046;7.642;2022-12-18T08:37:33;29.13;;;14.80;;
2706;SDS011;7819;48.046;7.642;2022-12-18T08:39:58;30.93;;;17.80;;
2706;SDS011;7819;48.046;7.642;2022-12-18T08:42:23;32.93;;;18.13;;
2706;SDS011;7819;48.046;7.642;2022-12-18T08:45:07;28.70;;;16.37;;
2706;SDS011;7819;48.046;7.642;2022-12-18T08:47:33;28.73;;;15.30;;
2706;SDS011;7819;48.046;7.642;2022-12-18T08:49:58;25.47;;;14.03;;
2706;SDS011;7819;48.046;7.642;2022-12-18T08:52:23;29.90;;;16.60;;
2706;SDS011;7819;48.046;7.642;2022-12-18T08:54:48;31.20;;;20.30;;
2706;SDS011;7819;48.046;7.642;2022-12-18T08:57:13;22.23;;;15.53;;
2706;SDS011;7819;48.046;7.642;2022-12-18T08:59:39;23.07;;;12.63;;
2706;SDS011;7819;48.046;7.642;2022-12-18T09:02:04;16.83;;;13.17;;
2706;SDS011;7819;48.046;7.642;2022-12-18T09:04:29;24.57;;;14.07;;
2706;SDS011;7819;48.046;7.642;2022-12-18T09:06:54;23.93;;;14.03;;
2706;SDS011;7819;48.046;7.642;2022-12-18T09:09:19;23.53;;;12.50;;
2706;SDS011;7819;48.046;7.642;2022-12-18T09:11:45;33.53;;;21.53;;
2706;SDS011;7819;48.046;7.642;2022-12-18T09:14:10;26.43;;;18.07;;
2706;SDS011;7819;48.046;7.642;2022-12-18T09:16:35;22.23;;;15.33;;
2706;SDS011;7819;48.046;7.642;2022-12-18T09:19:01;23.77;;;15.50;;
2706;SDS011;7819;48.046;7.642;2022-12-18T09:21:27;23.57;;;15.00;;
2706;SDS011;7819;48.046;7.642;2022-12-18T09:23:53;21.87;;;13.50;;
2706;SDS011;7819;48.046;7.642;2022-12-18T09:26:19;28.77;;;16.77;;
2706;SDS011;7819;48.046;7.642;2022-12-18T09:28:44;29.87;;;17.37;;
2706;SDS011;7819;48.046;7.642;2022-12-18T09:31:10;26.23;;;15.20;;
2706;SDS011;7819;48.046;7.642;2022-12-18T09:33:40;27.27;;;15.73;;
2706;SDS011;7819;48.046;7.642;2022-12-18T09:36:06;27.00;;;15.53;;
2706;SDS011;7819;48.046;7.642;2022-12-18T09:38:32;28.30;;;15.03;;
2706;SDS011;7819;48.046;7.642;2022-12-18T09:43:43;28.53;;;17.13;;
2706;SDS011;7819;48.046;7.642;2022-12-18T09:46:11;26.07;;;15.77;;
2706;SDS011;7819;48.046;7.642;2022-12-18T09:48:47;23.50;;;16.10;;
2706;SDS011;7819;48.046;7.642;2022-12-18T09:51:15;28.67;;;16.90;;
2706;SDS011;7819;48.046;7.642;2022-12-18T09:53:44;28.33;;;18.33;;
2706;SDS011;7819;48.046;7.642;2022-12-18T09:56:16;23.27;;;13.30;;
2706;SDS011;7819;48.046;7.642;2022-12-18T09:58:43;26.97;;;15.10;;
2706;SDS011;7819;48.046;7.642;2022-12-18T10:01:10;23.70;;;15.30;;
2706;SDS011;7819;48.046;7.642;2022-12-18T10:03:36;31.93;;;15.73;;
2706;SDS011;7819;48.046;7.642;2022-12-18T10:06:04;25.70;;;14.00;;
2706;SDS011;7819;48.046;7.642;2022-12-18T10:21:24;19.17;;;13.77;;
2706;SDS011;7819;48.046;7.642;2022-12-18T10:24:03;23.23;;;16.20;;
2706;SDS011;7819;48.046;7.642;2022-12-18T10:26:33;25.13;;;15.27;;
2706;SDS011;7819;48.046;7.642;2022-12-18T10:28:59;21.40;;;14.30;;
2706;SDS011;7819;48.046;7.642;2022-12-18T10:31:24;26.30;;;16.20;;
2706;SDS011;7819;48.046;7.642;2022-12-18T10:33:49;20.10;;;12.60;;
2706;SDS011;7819;48.046;7.642;2022-12-18T10:36:14;17.27;;;13.60;;
2706;SDS011;7819;48.046;7.642;2022-12-18T10:38:40;21.87;;;14.70;;
2706;SDS011;7819;48.046;7.642;2022-12-18T10:43:34;21.97;;;13.97;;
2706;SDS011;7819;48.046;7.642;2022-12-18T10:46:01;24.97;;;14.50;;
2706;SDS011;7819;48.046;7.642;2022-12-18T10:48:27;28.10;;;17.07;;
2706;SDS011;7819;48.046;7.642;2022-12-18T10:50:53;25.07;;;17.37;;
2706;SDS011;7819;48.046;7.642;2022-12-18T10:53:19;29.27;;;19.90;;
2706;SDS011;7819;48.046;7.642;2022-12-18T10:55:45;23.93;;;17.03;;
2706;SDS011;7819;48.046;7.642;2022-12-18T11:00:38;23.33;;;14.93;;
2706;SDS011;7819;48.046;7.642;2022-12-18T11:03:07;24.87;;;17.73;;
2706;SDS011;7819;48.046;7.642;2022-12-18T11:05:49;25.10;;;17.27;;
2706;SDS011;7819;48.046;7.642;2022-12-18T11:08:25;34.70;;;18.53;;
2706;SDS011;7819;48.046;7.642;2022-12-18T11:10:51;34.10;;;17.70;;
2706;SDS011;7819;48.046;7.642;2022-12-18T11:13:17;33.40;;;18.30;;
2706;SDS011;7819;48.046;7.642;2022-12-18T11:15:43;26.40;;;17.23;;
2706;SDS011;7819;48.046;7.642;2022-12-18T11:18:16;24.37;;;16.77;;
2706;SDS011;7819;48.046;7.642;2022-12-18T11:20:41;32.03;;;18.10;;
2706;SDS011;7819;48.046;7.642;2022-12-18T11:23:10;23.80;;;16.70;;
2706;SDS011;7819;48.046;7.642;2022-12-18T11:25:37;31.93;;;18.33;;
2706;SDS011;7819;48.046;7.642;2022-12-18T11:30:47;27.63;;;17.60;;
2706;SDS011;7819;48.046;7.642;2022-12-18T11:33:16;21.63;;;16.43;;
2706;SDS011;7819;48.046;7.642;2022-12-18T11:35:46;22.53;;;14.60;;
2706;SDS011;7819;48.046;7.642;2022-12-18T11:38:21;26.80;;;16.67;;
2706;SDS011;7819;48.046;7.642;2022-12-18T11:40:50;25.43;;;18.00;;
2706;SDS011;7819;48.046;7.642;2022-12-18T11:43:18;29.50;;;20.90;;
2706;SDS011;7819;48.046;7.642;2022-12-18T11:50:55;24.63;;;16.20;;
2706;SDS011;7819;48.046;7.642;2022-12-18T11:53:21;30.00;;;17.40;;
2706;SDS011;7819;48.046;7.642;2022-12-18T11:55:51;22.53;;;15.50;;
2706;SDS011;7819;48.046;7.642;2022-12-18T12:01:29;20.07;;;14.30;;
2706;SDS011;7819;48.046;7.642;2022-12-18T12:04:02;26.50;;;16.57;;
2706;SDS011;7819;48.046;7.642;2022-12-18T12:19:30;23.20;;;15.13;;
2706;SDS011;7819;48.046;7.642;2022-12-18T12:24:56;26.00;;;15.20;;
2706;SDS011;7819;48.046;7.642;2022-12-18T12:27:32;23.00;;;16.07;;
2706;SDS011;7819;48.046;7.642;2022-12-18T12:35:04;18.50;;;13.43;;
2706;SDS011;7819;48.046;7.642;2022-12-18T12:39:57;22.43;;;14.87;;
2706;SDS011;7819;48.046;7.642;2022-12-18T12:42:30;21.07;;;14.63;;
2706;SDS011;7819;48.046;7.642;2022-12-18T12:45:23;23.77;;;14.90;;
2706;SDS011;7819;48.046;7.642;2022-12-18T12:47:51;25.27;;;15.67;;
2706;SDS011;7819;48.046;7.642;2022-12-18T12:50:17;28.20;;;17.17;;
2706;SDS011;7819;48.046;7.642;2022-12-18T12:52:45;26.70;;;16.23;;
2706;SDS011;7819;48.046;7.642;2022-12-18T12:55:16;23.37;;;15.40;;
2706;SDS011;7819;48.046;7.642;2022-12-18T12:57:45;24.10;;;16.57;;
2706;SDS011;7819;48.046;7.642;2022-12-18T13:00:17;21.73;;;15.67;;
2706;SDS011;7819;48.046;7.642;2022-12-18T13:02:50;24.30;;;16.80;;
2706;SDS011;7819;48.046;7.642;2022-12-18T13:10:31;26.77;;;16.90;;
2706;SDS011;7819;48.046;7.642;2022-12-18T13:13:09;20.33;;;14.40;;
2706;SDS011;7819;48.046;7.642;2022-12-18T13:20:34;31.40;;;20.50;;
2706;SDS011;7819;48.046;7.642;2022-12-18T13:22:59;27.47;;;18.70;;
2706;SDS011;7819;48.046;7.642;2022-12-18T13:25:28;27.30;;;18.20;;
2706;SDS011;7819;48.046;7.642;2022-12-18T13:27:57;26.20;;;16.63;;
2706;SDS011;7819;48.046;7.642;2022-12-18T13:35:38;26.30;;;19.37;;
2706;SDS011;7819;48.046;7.642;2022-12-18T13:38:18;25.27;;;19.27;;
2706;SDS011;7819;48.046;7.642;2022-12-18T13:46:00;26.47;;;16.80;;
2706;SDS011;7819;48.046;7.642;2022-12-18T13:48:26;24.33;;;17.10;;
2706;SDS011;7819;48.046;7.642;2022-12-18T13:50:53;21.97;;;15.50;;
2706;SDS011;7819;48.046;7.642;2022-12-18T13:53:21;25.27;;;14.50;;
2706;SDS011;7819;48.046;7.642;2022-12-18T13:55:54;20.37;;;16.20;;
2706;SDS011;7819;48.046;7.642;2022-12-18T13:58:20;22.77;;;16.27;;
2706;SDS011;7819;48.046;7.642;2022-12-18T14:00:45;28.20;;;16.27;;
2706;SDS011;7819;48.046;7.642;2022-12-18T14:03:29;23.63;;;16.63;;
2706;SDS011;7819;48.046;7.642;2022-12-18T14:06:06;26.53;;;16.53;;
2706;SDS011;7819;48.046;7.642;2022-12-18T14:08:39;21.67;;;15.93;;
2706;SDS011;7819;48.046;7.642;2022-12-18T14:11:05;20.50;;;15.67;;
2706;SDS011;7819;48.046;7.642;2022-12-18T14:13:39;29.50;;;18.67;;
2706;SDS011;7819;48.046;7.642;2022-12-18T14:16:06;22.17;;;17.00;;
2706;SDS011;7819;48.046;7.642;2022-12-18T14:18:41;33.07;;;20.73;;
2706;SDS011;7819;48.046;7.642;2022-12-18T14:21:14;25.53;;;17.77;;
2706;SDS011;7819;48.046;7.642;2022-12-18T14:23:41;27.23;;;17.77;;
2706;SDS011;7819;48.046;7.642;2022-12-18T14:28:44;20.87;;;15.93;;
2706;SDS011;7819;48.046;7.642;2022-12-18T14:31:16;25.40;;;17.60;;
2706;SDS011;7819;48.046;7.642;2022-12-18T14:33:42;28.40;;;19.03;;
2706;SDS011;7819;48.046;7.642;2022-12-18T14:36:14;23.90;;;17.83;;
2706;SDS011;7819;48.046;7.642;2022-12-18T14:38:41;21.80;;;16.30;;
2706;SDS011;7819;48.046;7.642;2022-12-18T14:43:32;19.42;;;13.48;;
2706;SDS011;7819;48.046;7.642;2022-12-18T14:45:58;23.90;;;15.30;;
2706;SDS011;7819;48.046;7.642;2022-12-18T14:48:30;23.63;;;14.40;;
2706;SDS011;7819;48.046;7.642;2022-12-18T14:51:00;24.97;;;15.37;;
2706;SDS011;7819;48.046;7.642;2022-12-18T14:53:32;20.00;;;14.47;;
2706;SDS011;7819;48.046;7.642;2022-12-18T14:55:58;25.57;;;16.17;;
2706;SDS011;7819;48.046;7.642;2022-12-18T14:58:23;22.37;;;14.30;;
2706;SDS011;7819;48.046;7.642;2022-12-18T15:00:48;24.03;;;16.00;;
2706;SDS011;7819;48.046;7.642;2022-12-18T15:03:17;22.90;;;15.60;;
2706;SDS011;7819;48.046;7.642;2022-12-18T15:05:43;22.87;;;15.23;;
2706;SDS011;7819;48.046;7.642;2022-12-18T15:10:52;29.30;;;16.43;;
2706;SDS011;7819;48.046;7.642;2022-12-18T15:13:21;22.97;;;15.63;;
2706;SDS011;7819;48.046;7.642;2022-12-18T15:15:47;23.37;;;17.20;;
2706;SDS011;7819;48.046;7.642;2022-12-18T15:18:14;29.07;;;19.67;;
2706;SDS011;7819;48.046;7.642;2022-12-18T15:25:44;26.30;;;16.60;;
2706;SDS011;7819;48.046;7.642;2022-12-18T15:28:21;25.03;;;18.30;;
2706;SDS011;7819;48.046;7.642;2022-12-18T15:31:01;23.33;;;16.50;;
2706;SDS011;7819;48.046;7.642;2022-12-18T15:33:27;26.73;;;16.60;;
2706;SDS011;7819;48.046;7.642;2022-12-18T15:35:58;23.93;;;15.23;;
2706;SDS011;7819;48.046;7.642;2022-12-18T15:38:23;23.80;;;16.50;;
2706;SDS011;7819;48.046;7.642;2022-12-18T15:40:48;22.80;;;14.57;;
2706;SDS011;7819;48.046;7.642;2022-12-18T15:43:14;27.20;;;17.70;;
2706;SDS011;7819;48.046;7.642;2022-12-18T15:45:57;24.53;;;16.53;;
2706;SDS011;7819;48.046;7.642;2022-12-18T15:48:23;21.00;;;16.13;;
2706;SDS011;7819;48.046;7.642;2022-12-18T15:50:51;25.00;;;18.93;;
2706;SDS011;7819;48.046;7.642;2022-12-18T15:53:17;30.10;;;18.47;;
2706;SDS011;7819;48.046;7.642;2022-12-18T15:55:42;24.97;;;17.67;;
2706;SDS011;7819;48.046;7.642;2022-12-18T15:58:26;25.87;;;18.37;;
2706;SDS011;7819;48.046;7.642;2022-12-18T16:00:51;28.90;;;19.23;;
2706;SDS011;7819;48.046;7.642;2022-12-18T16:03:16;31.10;;;19.87;;
2706;SDS011;7819;48.046;7.642;2022-12-18T16:05:42;33.20;;;21.23;;
2706;SDS011;7819;48.046;7.642;2022-12-18T16:08:07;28.23;;;19.57;;
2706;SDS011;7819;48.046;7.642;2022-12-18T16:10:32;29.83;;;21.97;;
2706;SDS011;7819;48.046;7.642;2022-12-18T16:12:57;28.60;;;21.20;;
2706;SDS011;7819;48.046;7.642;2022-12-18T16:15:22;36.60;;;23.20;;
2706;SDS011;7819;48.046;7.642;2022-12-18T16:17:48;34.60;;;24.50;;
2706;SDS011;7819;48.046;7.642;2022-12-18T16:20:17;31.57;;;23.10;;
2706;SDS011;7819;48.046;7.642;2022-12-18T16:22:43;34.47;;;23.80;;
2706;SDS011;7819;48.046;7.642;2022-12-18T16:25:21;39.90;;;31.97;;
2706;SDS011;7819;48.046;7.642;2022-12-18T16:27:46;47.13;;;35.60;;
2706;SDS011;7819;48.046;7.642;2022-12-18T16:30:15;31.17;;;23.40;;
2706;SDS011;7819;48.046;7.642;2022-12-18T16:32:54;27.97;;;22.17;;
2706;SDS011;7819;48.046;7.642;2022-12-18T16:38:20;35.53;;;24.33;;
2706;SDS011;7819;48.046;7.642;2022-12-18T16:40:45;34.57;;;25.70;;
2706;SDS011;7819;48.046;7.642;2022-12-18T16:43:40;30.80;;;22.80;;
2706;SDS011;7819;48.046;7.642;2022-12-18T16:46:11;33.70;;;22.30;;
2706;SDS011;7819;48.046;7.642;2022-12-18T16:48:40;35.40;;;27.57;;
2706;SDS011;7819;48.046;7.642;2022-12-18T16:51:05;39.43;;;25.77;;